This is the latest recevied weather packets stored in our database for station/object W8RD. If no packets are shown the sender has not sent any weather packets the latest 1 day(s).
| Time | Temp. | Humidity | Pressure | Rain* | Wind** | Luminosity | Snow |
|---|---|---|---|---|---|---|---|
| 1778004602 | 30.56° C | 55% | 1016.7 hPa | 0 mm | 0.89 m/s, 339° | 915 W/m² | - |
| 1778004001 | 30.56° C | 53% | 1016.9 hPa | 0 mm | 0.45 m/s, 281° | 974 W/m² | - |
| 1778003400 | 30.56° C | 53% | 1016.8 hPa | 0 mm | 0.89 m/s, 226° | 157 W/m² | - |
| 1778002798 | 31.11° C | 54% | 1016.9 hPa | 0 mm | 0.45 m/s, 320° | 1028 W/m² | - |
| 1778002198 | 32.22° C | 46% | 1017 hPa | 0 mm | 0 m/s | 167 W/m² | - |
| 1778001596 | 31.11° C | 51% | 1017 hPa | 0 mm | 0 m/s | 962 W/m² | - |
| 1778000995 | 30.56° C | 51% | 1017 hPa | 0 mm | 0.45 m/s, 237° | 911 W/m² | - |
| 1778000393 | 30° C | 52% | 1017.2 hPa | 0 mm | 0 m/s | 866 W/m² | - |
| 1777999791 | 30° C | 54% | 1017.4 hPa | 0 mm | 0.45 m/s, 357° | 575 W/m² | - |
| 1777999192 | 29.44° C | 54% | 1017.6 hPa | 0 mm | 0 m/s | 275 W/m² | - |
| 1777998589 | 28.89° C | 57% | 1017.7 hPa | 0 mm | 0 m/s | 134 W/m² | - |
| 1777997987 | 28.89° C | 55% | 1017.5 hPa | 0 mm | 0 m/s | 100 W/m² | - |
| 1777997387 | 28.89° C | 56% | 1017.4 hPa | 0 mm | 0 m/s | 79 W/m² | - |
| 1777996782 | 28.89° C | 56% | 1017.5 hPa | 0 mm | 0.89 m/s, 355° | 92 W/m² | - |
| 1777996181 | 28.33° C | 57% | 1017.6 hPa | 0 mm | 0 m/s | 103 W/m² | - |
| 1777995579 | 27.78° C | 58% | 1017.7 hPa | 0 mm | 0 m/s | 99 W/m² | - |
| 1777994974 | 27.22° C | 62% | 1017.6 hPa | 0 mm | 0 m/s | 125 W/m² | - |
| 1777994371 | 26.67° C | 62% | 1017.6 hPa | 0 mm | 0.45 m/s, 354° | 114 W/m² | - |
| 1777993771 | 26.67° C | 63% | 1017.8 hPa | 0 mm | 0 m/s | 106 W/m² | - |
| 1777993167 | 26.67° C | 62% | 1017.5 hPa | 0 mm | 0 m/s | 106 W/m² | - |
| 1777992563 | 26.67° C | 64% | 1017.5 hPa | 0 mm | 0.45 m/s, 60° | 98 W/m² | - |
| 1777991958 | 26.11° C | 66% | 1017.4 hPa | 0 mm | 0 m/s | 54 W/m² | - |
| 1777991358 | 25.56° C | 67% | 1017.5 hPa | 0 mm | 0 m/s | 47 W/m² | - |
| 1777990759 | 25.56° C | 68% | 1017.2 hPa | 0 mm | 0.45 m/s, 318° | 50 W/m² | - |
| 1777990159 | 25° C | 68% | 1017.2 hPa | 0 mm | 0 m/s | 46 W/m² | - |
* Rain latest hour (hover to see other rain measurements)
** Current wind speed in m/s (hover to see current wind gust speed)